sensor_id;sensor_type;location;lat;lon;timestamp;temperature;humidity
20658;DHT22;10488;50.846;4.078;2022-07-03T00:01:47;16.40;99.90
20658;DHT22;10488;50.846;4.078;2022-07-03T00:04:12;16.40;99.90
20658;DHT22;10488;50.846;4.078;2022-07-03T00:06:38;16.50;99.90
20658;DHT22;10488;50.846;4.078;2022-07-03T00:09:05;16.60;99.90
20658;DHT22;10488;50.846;4.078;2022-07-03T00:11:32;16.70;99.90
20658;DHT22;10488;50.846;4.078;2022-07-03T00:13:58;16.70;99.90
20658;DHT22;10488;50.846;4.078;2022-07-03T00:16:24;16.80;99.90
20658;DHT22;10488;50.846;4.078;2022-07-03T00:18:50;16.60;99.90
20658;DHT22;10488;50.846;4.078;2022-07-03T00:21:25;16.60;99.90
20658;DHT22;10488;50.846;4.078;2022-07-03T00:26:55;16.90;99.90
20658;DHT22;10488;50.846;4.078;2022-07-03T00:29:27;16.60;99.90
20658;DHT22;10488;50.846;4.078;2022-07-03T00:31:55;16.70;99.90
20658;DHT22;10488;50.846;4.078;2022-07-03T00:34:22;16.80;99.90
20658;DHT22;10488;50.846;4.078;2022-07-03T00:36:52;16.90;99.90
20658;DHT22;10488;50.846;4.078;2022-07-03T00:39:18;16.90;99.90
20658;DHT22;10488;50.846;4.078;2022-07-03T00:41:44;16.80;99.90
20658;DHT22;10488;50.846;4.078;2022-07-03T00:44:13;16.50;99.90
20658;DHT22;10488;50.846;4.078;2022-07-03T00:46:40;16.50;99.90
20658;DHT22;10488;50.846;4.078;2022-07-03T00:49:06;16.70;99.90
20658;DHT22;10488;50.846;4.078;2022-07-03T00:51:34;16.90;99.90
20658;DHT22;10488;50.846;4.078;2022-07-03T00:54:03;17.00;99.90
20658;DHT22;10488;50.846;4.078;2022-07-03T00:56:30;16.90;99.90
20658;DHT22;10488;50.846;4.078;2022-07-03T00:59:00;17.00;99.90
20658;DHT22;10488;50.846;4.078;2022-07-03T01:01:29;17.10;99.90
20658;DHT22;10488;50.846;4.078;2022-07-03T01:04:22;17.20;99.90
20658;DHT22;10488;50.846;4.078;2022-07-03T01:07:11;17.20;99.90
20658;DHT22;10488;50.846;4.078;2022-07-03T01:12:27;17.00;99.90
20658;DHT22;10488;50.846;4.078;2022-07-03T01:18:23;17.00;99.90
20658;DHT22;10488;50.846;4.078;2022-07-03T01:21:05;17.20;99.90
20658;DHT22;10488;50.846;4.078;2022-07-03T01:23:46;17.20;99.90
20658;DHT22;10488;50.846;4.078;2022-07-03T01:26:18;17.10;99.90
20658;DHT22;10488;50.846;4.078;2022-07-03T01:28:45;17.10;99.90
20658;DHT22;10488;50.846;4.078;2022-07-03T01:31:17;17.10;99.90
20658;DHT22;10488;50.846;4.078;2022-07-03T01:33:44;16.90;99.90
20658;DHT22;10488;50.846;4.078;2022-07-03T01:36:13;16.90;99.90
20658;DHT22;10488;50.846;4.078;2022-07-03T01:38:41;17.00;99.90
20658;DHT22;10488;50.846;4.078;2022-07-03T01:41:09;17.00;99.90
20658;DHT22;10488;50.846;4.078;2022-07-03T01:43:42;17.00;99.90
20658;DHT22;10488;50.846;4.078;2022-07-03T01:46:11;17.20;99.90
20658;DHT22;10488;50.846;4.078;2022-07-03T01:48:41;17.30;99.90
20658;DHT22;10488;50.846;4.078;2022-07-03T01:51:10;17.20;99.90
20658;DHT22;10488;50.846;4.078;2022-07-03T01:53:49;17.20;99.90
20658;DHT22;10488;50.846;4.078;2022-07-03T01:56:19;17.20;99.90
20658;DHT22;10488;50.846;4.078;2022-07-03T01:58:45;17.20;99.90
20658;DHT22;10488;50.846;4.078;2022-07-03T02:01:22;17.30;99.90
20658;DHT22;10488;50.846;4.078;2022-07-03T02:04:04;17.20;99.90
20658;DHT22;10488;50.846;4.078;2022-07-03T02:06:49;17.20;99.90
20658;DHT22;10488;50.846;4.078;2022-07-03T02:09:18;17.30;99.90
20658;DHT22;10488;50.846;4.078;2022-07-03T02:11:47;17.30;99.90
20658;DHT22;10488;50.846;4.078;2022-07-03T02:14:19;17.10;99.90
20658;DHT22;10488;50.846;4.078;2022-07-03T02:17:13;17.00;99.90
20658;DHT22;10488;50.846;4.078;2022-07-03T02:19:56;17.00;99.90
20658;DHT22;10488;50.846;4.078;2022-07-03T02:22:32;17.00;99.90
20658;DHT22;10488;50.846;4.078;2022-07-03T02:25:05;17.00;99.90
20658;DHT22;10488;50.846;4.078;2022-07-03T02:27:43;17.00;99.90
20658;DHT22;10488;50.846;4.078;2022-07-03T02:30:11;17.00;99.90
20658;DHT22;10488;50.846;4.078;2022-07-03T02:32:43;17.00;99.90
20658;DHT22;10488;50.846;4.078;2022-07-03T02:35:17;17.00;99.90
20658;DHT22;10488;50.846;4.078;2022-07-03T02:38:16;17.00;99.90
20658;DHT22;10488;50.846;4.078;2022-07-03T02:43:47;16.80;99.90
20658;DHT22;10488;50.846;4.078;2022-07-03T02:46:43;16.80;99.90
20658;DHT22;10488;50.846;4.078;2022-07-03T02:54:45;16.80;99.90
20658;DHT22;10488;50.846;4.078;2022-07-03T02:57:13;16.70;99.90
20658;DHT22;10488;50.846;4.078;2022-07-03T02:59:57;16.70;99.90
20658;DHT22;10488;50.846;4.078;2022-07-03T03:02:55;16.60;99.90
20658;DHT22;10488;50.846;4.078;2022-07-03T03:10:38;16.50;99.90
20658;DHT22;10488;50.846;4.078;2022-07-03T03:13:06;16.30;99.90
20658;DHT22;10488;50.846;4.078;2022-07-03T03:15:33;16.30;99.90
20658;DHT22;10488;50.846;4.078;2022-07-03T03:18:05;16.30;99.90
20658;DHT22;10488;50.846;4.078;2022-07-03T03:20:33;16.30;99.90
20658;DHT22;10488;50.846;4.078;2022-07-03T03:25:53;16.30;99.90
20658;DHT22;10488;50.846;4.078;2022-07-03T03:28:19;16.30;99.90
20658;DHT22;10488;50.846;4.078;2022-07-03T03:30:45;16.40;99.90
20658;DHT22;10488;50.846;4.078;2022-07-03T03:33:11;16.30;99.90
20658;DHT22;10488;50.846;4.078;2022-07-03T03:35:38;16.20;99.90
20658;DHT22;10488;50.846;4.078;2022-07-03T03:38:05;16.40;99.90
20658;DHT22;10488;50.846;4.078;2022-07-03T03:40:31;16.60;99.90
20658;DHT22;10488;50.846;4.078;2022-07-03T03:42:58;16.40;99.90
20658;DHT22;10488;50.846;4.078;2022-07-03T03:45:24;16.20;99.90
20658;DHT22;10488;50.846;4.078;2022-07-03T03:47:49;16.30;99.90
20658;DHT22;10488;50.846;4.078;2022-07-03T03:50:15;16.10;99.90
20658;DHT22;10488;50.846;4.078;2022-07-03T03:52:41;16.10;99.90
20658;DHT22;10488;50.846;4.078;2022-07-03T03:55:08;15.90;99.90
20658;DHT22;10488;50.846;4.078;2022-07-03T03:57:36;15.90;99.90
20658;DHT22;10488;50.846;4.078;2022-07-03T04:00:04;15.80;99.90
20658;DHT22;10488;50.846;4.078;2022-07-03T04:02:30;15.90;99.90
20658;DHT22;10488;50.846;4.078;2022-07-03T04:04:56;16.00;99.90
20658;DHT22;10488;50.846;4.078;2022-07-03T04:07:22;15.90;99.90
20658;DHT22;10488;50.846;4.078;2022-07-03T04:09:47;15.90;99.90
20658;DHT22;10488;50.846;4.078;2022-07-03T04:12:13;15.70;99.90
20658;DHT22;10488;50.846;4.078;2022-07-03T04:14:39;15.60;99.90
20658;DHT22;10488;50.846;4.078;2022-07-03T04:17:04;15.60;99.90
20658;DHT22;10488;50.846;4.078;2022-07-03T04:19:30;15.60;99.90
20658;DHT22;10488;50.846;4.078;2022-07-03T04:21:56;15.70;99.90
20658;DHT22;10488;50.846;4.078;2022-07-03T04:24:22;15.70;99.90
20658;DHT22;10488;50.846;4.078;2022-07-03T04:26:47;15.70;99.90
20658;DHT22;10488;50.846;4.078;2022-07-03T04:29:13;15.80;99.90
20658;DHT22;10488;50.846;4.078;2022-07-03T04:31:39;15.90;99.90
20658;DHT22;10488;50.846;4.078;2022-07-03T04:34:05;16.00;99.90
20658;DHT22;10488;50.846;4.078;2022-07-03T04:36:30;16.00;99.90
20658;DHT22;10488;50.846;4.078;2022-07-03T04:38:56;16.00;99.90
20658;DHT22;10488;50.846;4.078;2022-07-03T04:41:21;16.00;99.90
20658;DHT22;10488;50.846;4.078;2022-07-03T04:43:47;16.10;99.90
20658;DHT22;10488;50.846;4.078;2022-07-03T04:46:13;16.00;99.90
20658;DHT22;10488;50.846;4.078;2022-07-03T04:48:39;16.20;99.90
20658;DHT22;10488;50.846;4.078;2022-07-03T04:51:04;16.40;99.90
20658;DHT22;10488;50.846;4.078;2022-07-03T04:53:30;16.20;99.90
20658;DHT22;10488;50.846;4.078;2022-07-03T04:55:56;16.20;99.90
20658;DHT22;10488;50.846;4.078;2022-07-03T04:58:21;16.20;99.90
20658;DHT22;10488;50.846;4.078;2022-07-03T05:00:47;16.30;99.90
20658;DHT22;10488;50.846;4.078;2022-07-03T05:03:13;16.60;99.90
20658;DHT22;10488;50.846;4.078;2022-07-03T05:05:39;16.50;99.90
20658;DHT22;10488;50.846;4.078;2022-07-03T05:08:05;16.60;99.90
20658;DHT22;10488;50.846;4.078;2022-07-03T05:10:31;16.30;99.90
20658;DHT22;10488;50.846;4.078;2022-07-03T05:12:56;16.30;99.90
20658;DHT22;10488;50.846;4.078;2022-07-03T05:15:22;16.20;99.90
20658;DHT22;10488;50.846;4.078;2022-07-03T05:17:48;16.40;99.90
20658;DHT22;10488;50.846;4.078;2022-07-03T05:20:14;16.50;99.90
20658;DHT22;10488;50.846;4.078;2022-07-03T05:22:49;16.60;99.90
20658;DHT22;10488;50.846;4.078;2022-07-03T05:25:15;16.50;99.90
20658;DHT22;10488;50.846;4.078;2022-07-03T05:27:41;16.50;99.90
20658;DHT22;10488;50.846;4.078;2022-07-03T05:30:07;16.70;99.90
20658;DHT22;10488;50.846;4.078;2022-07-03T05:32:33;16.80;99.90
20658;DHT22;10488;50.846;4.078;2022-07-03T05:34:59;17.10;99.90
20658;DHT22;10488;50.846;4.078;2022-07-03T05:37:25;17.10;99.90
20658;DHT22;10488;50.846;4.078;2022-07-03T05:39:50;17.50;99.90
20658;DHT22;10488;50.846;4.078;2022-07-03T05:42:16;18.10;99.90
20658;DHT22;10488;50.846;4.078;2022-07-03T05:44:42;18.30;99.90
20658;DHT22;10488;50.846;4.078;2022-07-03T05:47:07;18.60;99.90
20658;DHT22;10488;50.846;4.078;2022-07-03T05:49:33;19.00;99.90
20658;DHT22;10488;50.846;4.078;2022-07-03T05:51:58;19.70;99.90
20658;DHT22;10488;50.846;4.078;2022-07-03T05:54:24;20.60;99.90
20658;DHT22;10488;50.846;4.078;2022-07-03T05:56:50;21.40;99.90
20658;DHT22;10488;50.846;4.078;2022-07-03T05:59:15;21.60;99.90
20658;DHT22;10488;50.846;4.078;2022-07-03T06:01:41;22.20;99.90
20658;DHT22;10488;50.846;4.078;2022-07-03T06:04:07;22.70;99.90
20658;DHT22;10488;50.846;4.078;2022-07-03T06:06:32;22.80;99.90
20658;DHT22;10488;50.846;4.078;2022-07-03T06:08:58;23.00;99.90
20658;DHT22;10488;50.846;4.078;2022-07-03T06:11:24;22.30;99.90
20658;DHT22;10488;50.846;4.078;2022-07-03T06:13:49;22.50;99.90
20658;DHT22;10488;50.846;4.078;2022-07-03T06:16:15;22.10;99.90
20658;DHT22;10488;50.846;4.078;2022-07-03T06:18:41;21.80;99.90
20658;DHT22;10488;50.846;4.078;2022-07-03T06:21:06;22.20;99.90
20658;DHT22;10488;50.846;4.078;2022-07-03T06:23:32;22.90;99.90
20658;DHT22;10488;50.846;4.078;2022-07-03T06:25:57;23.60;99.90
20658;DHT22;10488;50.846;4.078;2022-07-03T06:28:23;22.00;99.90
20658;DHT22;10488;50.846;4.078;2022-07-03T06:30:49;22.30;99.90
20658;DHT22;10488;50.846;4.078;2022-07-03T06:33:14;22.70;99.90
20658;DHT22;10488;50.846;4.078;2022-07-03T06:35:40;22.70;99.90
20658;DHT22;10488;50.846;4.078;2022-07-03T06:38:06;24.50;99.90
20658;DHT22;10488;50.846;4.078;2022-07-03T06:40:31;24.90;99.90
20658;DHT22;10488;50.846;4.078;2022-07-03T06:42:57;24.40;99.90
20658;DHT22;10488;50.846;4.078;2022-07-03T06:45:23;24.60;99.90
20658;DHT22;10488;50.846;4.078;2022-07-03T06:47:48;24.80;99.90
20658;DHT22;10488;50.846;4.078;2022-07-03T06:50:14;25.20;99.90
20658;DHT22;10488;50.846;4.078;2022-07-03T06:52:40;23.40;99.90
20658;DHT22;10488;50.846;4.078;2022-07-03T06:55:06;23.50;99.90
20658;DHT22;10488;50.846;4.078;2022-07-03T06:57:31;23.50;99.90
20658;DHT22;10488;50.846;4.078;2022-07-03T06:59:57;23.10;99.90
20658;DHT22;10488;50.846;4.078;2022-07-03T07:02:23;23.10;99.90
20658;DHT22;10488;50.846;4.078;2022-07-03T07:04:48;23.10;99.90
20658;DHT22;10488;50.846;4.078;2022-07-03T07:07:14;23.80;99.90
20658;DHT22;10488;50.846;4.078;2022-07-03T07:09:40;23.50;99.90
20658;DHT22;10488;50.846;4.078;2022-07-03T07:12:06;22.60;99.90
20658;DHT22;10488;50.846;4.078;2022-07-03T07:14:32;23.30;99.90
20658;DHT22;10488;50.846;4.078;2022-07-03T07:16:57;22.60;99.90
20658;DHT22;10488;50.846;4.078;2022-07-03T07:19:23;23.70;99.90
20658;DHT22;10488;50.846;4.078;2022-07-03T07:21:48;23.00;99.90
20658;DHT22;10488;50.846;4.078;2022-07-03T07:24:14;23.00;99.90
20658;DHT22;10488;50.846;4.078;2022-07-03T07:26:40;23.60;99.90
20658;DHT22;10488;50.846;4.078;2022-07-03T07:29:06;22.90;99.90
20658;DHT22;10488;50.846;4.078;2022-07-03T07:31:31;23.50;99.90
20658;DHT22;10488;50.846;4.078;2022-07-03T07:33:57;24.10;99.90
20658;DHT22;10488;50.846;4.078;2022-07-03T07:36:23;24.20;99.90
20658;DHT22;10488;50.846;4.078;2022-07-03T07:38:49;23.90;99.90
20658;DHT22;10488;50.846;4.078;2022-07-03T07:41:14;25.00;99.90
20658;DHT22;10488;50.846;4.078;2022-07-03T07:43:40;25.10;99.90
20658;DHT22;10488;50.846;4.078;2022-07-03T07:46:06;24.90;99.90
20658;DHT22;10488;50.846;4.078;2022-07-03T07:48:35;25.10;99.90
20658;DHT22;10488;50.846;4.078;2022-07-03T07:51:01;24.80;99.90
20658;DHT22;10488;50.846;4.078;2022-07-03T07:53:27;25.30;99.90
20658;DHT22;10488;50.846;4.078;2022-07-03T07:55:52;24.60;99.90
20658;DHT22;10488;50.846;4.078;2022-07-03T07:58:18;24.20;99.90
20658;DHT22;10488;50.846;4.078;2022-07-03T08:00:44;25.00;99.90
20658;DHT22;10488;50.846;4.078;2022-07-03T08:03:30;24.60;99.90
20658;DHT22;10488;50.846;4.078;2022-07-03T08:06:14;25.50;99.90
20658;DHT22;10488;50.846;4.078;2022-07-03T08:08:39;25.00;99.90
20658;DHT22;10488;50.846;4.078;2022-07-03T08:11:05;24.60;99.90
20658;DHT22;10488;50.846;4.078;2022-07-03T08:13:31;25.60;99.90
20658;DHT22;10488;50.846;4.078;2022-07-03T08:15:56;26.10;99.90
20658;DHT22;10488;50.846;4.078;2022-07-03T08:18:22;26.40;99.90
20658;DHT22;10488;50.846;4.078;2022-07-03T08:20:48;26.10;99.90
20658;DHT22;10488;50.846;4.078;2022-07-03T08:23:14;25.50;99.90
20658;DHT22;10488;50.846;4.078;2022-07-03T08:25:40;25.00;99.90
20658;DHT22;10488;50.846;4.078;2022-07-03T08:28:05;25.50;99.90
20658;DHT22;10488;50.846;4.078;2022-07-03T08:30:31;26.50;99.90
20658;DHT22;10488;50.846;4.078;2022-07-03T08:32:57;27.30;99.90
20658;DHT22;10488;50.846;4.078;2022-07-03T08:35:33;26.30;99.90
20658;DHT22;10488;50.846;4.078;2022-07-03T08:37:59;26.30;99.90
20658;DHT22;10488;50.846;4.078;2022-07-03T08:40:25;25.50;99.90
20658;DHT22;10488;50.846;4.078;2022-07-03T08:42:58;25.90;99.90
20658;DHT22;10488;50.846;4.078;2022-07-03T08:45:26;26.10;99.90
20658;DHT22;10488;50.846;4.078;2022-07-03T08:47:57;25.60;99.90
20658;DHT22;10488;50.846;4.078;2022-07-03T08:50:23;25.20;99.90
20658;DHT22;10488;50.846;4.078;2022-07-03T08:52:49;23.80;99.90
20658;DHT22;10488;50.846;4.078;2022-07-03T08:55:16;24.00;99.90
20658;DHT22;10488;50.846;4.078;2022-07-03T08:57:43;24.30;99.90
20658;DHT22;10488;50.846;4.078;2022-07-03T09:00:12;24.60;99.90
20658;DHT22;10488;50.846;4.078;2022-07-03T09:02:40;24.20;99.90
20658;DHT22;10488;50.846;4.078;2022-07-03T09:05:13;24.00;99.90
20658;DHT22;10488;50.846;4.078;2022-07-03T09:07:40;23.90;99.90
20658;DHT22;10488;50.846;4.078;2022-07-03T09:10:09;23.90;99.90
20658;DHT22;10488;50.846;4.078;2022-07-03T09:12:35;23.80;99.90
20658;DHT22;10488;50.846;4.078;2022-07-03T09:15:02;24.30;99.90
20658;DHT22;10488;50.846;4.078;2022-07-03T09:17:29;24.00;99.90
20658;DHT22;10488;50.846;4.078;2022-07-03T09:19:58;24.00;99.90
20658;DHT22;10488;50.846;4.078;2022-07-03T09:22:29;23.90;99.90
20658;DHT22;10488;50.846;4.078;2022-07-03T09:25:06;23.60;99.90
20658;DHT22;10488;50.846;4.078;2022-07-03T09:27:33;24.10;99.90
20658;DHT22;10488;50.846;4.078;2022-07-03T09:30:05;24.00;99.90
20658;DHT22;10488;50.846;4.078;2022-07-03T09:35:23;24.20;99.90
20658;DHT22;10488;50.846;4.078;2022-07-03T09:38:02;24.20;99.90
20658;DHT22;10488;50.846;4.078;2022-07-03T09:43:12;24.30;99.90
20658;DHT22;10488;50.846;4.078;2022-07-03T09:48:32;25.50;99.90
20658;DHT22;10488;50.846;4.078;2022-07-03T09:53:57;25.30;99.90
20658;DHT22;10488;50.846;4.078;2022-07-03T09:56:43;24.60;99.90
20658;DHT22;10488;50.846;4.078;2022-07-03T09:59:11;24.30;99.90
20658;DHT22;10488;50.846;4.078;2022-07-03T10:01:39;24.70;99.90
20658;DHT22;10488;50.846;4.078;2022-07-03T10:09:22;25.80;99.90
20658;DHT22;10488;50.846;4.078;2022-07-03T10:11:48;25.40;99.90
20658;DHT22;10488;50.846;4.078;2022-07-03T10:14:18;24.90;99.90
20658;DHT22;10488;50.846;4.078;2022-07-03T10:16:45;24.60;99.90
20658;DHT22;10488;50.846;4.078;2022-07-03T10:19:21;24.20;99.90
20658;DHT22;10488;50.846;4.078;2022-07-03T10:24:19;24.30;99.90
20658;DHT22;10488;50.846;4.078;2022-07-03T10:26:46;24.20;99.90
20658;DHT22;10488;50.846;4.078;2022-07-03T10:29:14;24.50;99.90
20658;DHT22;10488;50.846;4.078;2022-07-03T10:31:43;24.20;99.90
20658;DHT22;10488;50.846;4.078;2022-07-03T10:34:10;24.50;99.90
20658;DHT22;10488;50.846;4.078;2022-07-03T10:36:37;24.30;99.90
20658;DHT22;10488;50.846;4.078;2022-07-03T10:39:06;24.40;99.90
20658;DHT22;10488;50.846;4.078;2022-07-03T10:41:39;24.60;99.90
20658;DHT22;10488;50.846;4.078;2022-07-03T10:44:24;24.60;99.90
20658;DHT22;10488;50.846;4.078;2022-07-03T10:47:43;24.80;99.90
20658;DHT22;10488;50.846;4.078;2022-07-03T10:50:12;25.00;99.90
20658;DHT22;10488;50.846;4.078;2022-07-03T10:52:39;24.60;99.90
20658;DHT22;10488;50.846;4.078;2022-07-03T10:55:06;24.60;99.90
20658;DHT22;10488;50.846;4.078;2022-07-03T10:57:35;24.90;99.90
20658;DHT22;10488;50.846;4.078;2022-07-03T11:00:04;25.20;99.90
20658;DHT22;10488;50.846;4.078;2022-07-03T11:07:31;24.60;99.90
20658;DHT22;10488;50.846;4.078;2022-07-03T11:13:06;24.20;99.90
20658;DHT22;10488;50.846;4.078;2022-07-03T11:15:52;24.40;99.90
20658;DHT22;10488;50.846;4.078;2022-07-03T11:18:27;24.60;99.90
20658;DHT22;10488;50.846;4.078;2022-07-03T11:36:30;25.40;99.90
20658;DHT22;10488;50.846;4.078;2022-07-03T11:41:23;24.60;99.90
20658;DHT22;10488;50.846;4.078;2022-07-03T11:44:00;24.30;99.90
20658;DHT22;10488;50.846;4.078;2022-07-03T11:46:34;23.90;99.90
20658;DHT22;10488;50.846;4.078;2022-07-03T11:51:38;24.10;99.90
20658;DHT22;10488;50.846;4.078;2022-07-03T11:54:04;23.90;99.90
20658;DHT22;10488;50.846;4.078;2022-07-03T11:56:31;24.10;99.90
20658;DHT22;10488;50.846;4.078;2022-07-03T11:58:59;24.10;99.90
20658;DHT22;10488;50.846;4.078;2022-07-03T12:04:11;24.20;99.90
20658;DHT22;10488;50.846;4.078;2022-07-03T12:06:47;24.10;99.90
20658;DHT22;10488;50.846;4.078;2022-07-03T12:09:28;23.70;99.90
20658;DHT22;10488;50.846;4.078;2022-07-03T12:12:06;23.90;99.90
20658;DHT22;10488;50.846;4.078;2022-07-03T12:14:46;24.50;99.90
20658;DHT22;10488;50.846;4.078;2022-07-03T12:19:49;24.10;99.90
20658;DHT22;10488;50.846;4.078;2022-07-03T12:24:56;24.90;99.90
20658;DHT22;10488;50.846;4.078;2022-07-03T12:27:23;24.90;99.90
20658;DHT22;10488;50.846;4.078;2022-07-03T12:29:50;24.10;99.90
20658;DHT22;10488;50.846;4.078;2022-07-03T12:32:16;24.30;99.90
20658;DHT22;10488;50.846;4.078;2022-07-03T12:34:41;24.60;99.90
20658;DHT22;10488;50.846;4.078;2022-07-03T12:37:07;24.30;99.90
20658;DHT22;10488;50.846;4.078;2022-07-03T12:39:47;24.30;99.90
20658;DHT22;10488;50.846;4.078;2022-07-03T12:42:21;24.20;99.90
20658;DHT22;10488;50.846;4.078;2022-07-03T12:44:57;24.40;99.90
20658;DHT22;10488;50.846;4.078;2022-07-03T12:47:25;24.60;99.90
20658;DHT22;10488;50.846;4.078;2022-07-03T12:49:58;24.90;99.90
20658;DHT22;10488;50.846;4.078;2022-07-03T12:52:26;24.90;99.90
20658;DHT22;10488;50.846;4.078;2022-07-03T12:54:53;24.50;99.90
20658;DHT22;10488;50.846;4.078;2022-07-03T12:57:21;23.90;99.90
20658;DHT22;10488;50.846;4.078;2022-07-03T13:00:10;23.90;99.90
20658;DHT22;10488;50.846;4.078;2022-07-03T13:02:37;23.80;99.90
20658;DHT22;10488;50.846;4.078;2022-07-03T13:05:23;23.60;99.90
20658;DHT22;10488;50.846;4.078;2022-07-03T13:07:54;23.20;99.90
20658;DHT22;10488;50.846;4.078;2022-07-03T13:10:21;23.40;99.90
20658;DHT22;10488;50.846;4.078;2022-07-03T13:12:57;23.50;99.90
20658;DHT22;10488;50.846;4.078;2022-07-03T13:15:29;24.00;99.90
20658;DHT22;10488;50.846;4.078;2022-07-03T13:17:56;24.20;99.90
20658;DHT22;10488;50.846;4.078;2022-07-03T13:22:52;24.00;99.90
20658;DHT22;10488;50.846;4.078;2022-07-03T13:25:18;24.00;99.90
20658;DHT22;10488;50.846;4.078;2022-07-03T13:27:45;23.50;99.90
20658;DHT22;10488;50.846;4.078;2022-07-03T13:30:18;23.40;99.90
20658;DHT22;10488;50.846;4.078;2022-07-03T13:32:44;23.50;99.90
20658;DHT22;10488;50.846;4.078;2022-07-03T13:35:11;23.80;99.90
20658;DHT22;10488;50.846;4.078;2022-07-03T13:37:37;23.70;99.90
20658;DHT22;10488;50.846;4.078;2022-07-03T13:40:04;23.70;99.90
20658;DHT22;10488;50.846;4.078;2022-07-03T13:42:30;23.20;99.90
20658;DHT22;10488;50.846;4.078;2022-07-03T13:44:56;23.30;99.90
20658;DHT22;10488;50.846;4.078;2022-07-03T13:47:22;23.60;99.90
20658;DHT22;10488;50.846;4.078;2022-07-03T13:49:48;23.90;99.90
20658;DHT22;10488;50.846;4.078;2022-07-03T13:52:14;24.40;99.90
20658;DHT22;10488;50.846;4.078;2022-07-03T13:54:40;23.50;99.90
20658;DHT22;10488;50.846;4.078;2022-07-03T13:57:06;24.20;99.90
20658;DHT22;10488;50.846;4.078;2022-07-03T13:59:32;24.50;99.90
20658;DHT22;10488;50.846;4.078;2022-07-03T14:01:58;24.60;99.90
20658;DHT22;10488;50.846;4.078;2022-07-03T14:04:24;24.60;99.90
20658;DHT22;10488;50.846;4.078;2022-07-03T14:06:50;24.00;99.90
20658;DHT22;10488;50.846;4.078;2022-07-03T14:09:16;24.50;99.90
20658;DHT22;10488;50.846;4.078;2022-07-03T14:11:41;24.50;99.90
20658;DHT22;10488;50.846;4.078;2022-07-03T14:14:08;24.40;99.90
20658;DHT22;10488;50.846;4.078;2022-07-03T14:16:35;23.90;99.90
20658;DHT22;10488;50.846;4.078;2022-07-03T14:19:01;24.60;99.90
20658;DHT22;10488;50.846;4.078;2022-07-03T14:21:29;25.00;99.90
20658;DHT22;10488;50.846;4.078;2022-07-03T14:23:55;24.60;99.90
20658;DHT22;10488;50.846;4.078;2022-07-03T14:26:20;24.40;99.90
20658;DHT22;10488;50.846;4.078;2022-07-03T14:29:06;24.00;99.90
20658;DHT22;10488;50.846;4.078;2022-07-03T14:31:56;22.80;99.90
20658;DHT22;10488;50.846;4.078;2022-07-03T14:34:41;23.10;99.90
20658;DHT22;10488;50.846;4.078;2022-07-03T14:37:07;23.60;99.90
20658;DHT22;10488;50.846;4.078;2022-07-03T14:39:32;23.90;99.90
20658;DHT22;10488;50.846;4.078;2022-07-03T14:41:58;24.20;99.90
20658;DHT22;10488;50.846;4.078;2022-07-03T14:44:24;24.50;99.90
20658;DHT22;10488;50.846;4.078;2022-07-03T14:46:52;25.00;99.90
20658;DHT22;10488;50.846;4.078;2022-07-03T14:49:18;25.00;99.90
20658;DHT22;10488;50.846;4.078;2022-07-03T14:51:45;25.10;99.90
20658;DHT22;10488;50.846;4.078;2022-07-03T14:54:11;24.70;99.90
20658;DHT22;10488;50.846;4.078;2022-07-03T14:56:40;24.80;99.90
20658;DHT22;10488;50.846;4.078;2022-07-03T14:59:09;24.80;99.90
20658;DHT22;10488;50.846;4.078;2022-07-03T15:01:36;25.00;99.90
20658;DHT22;10488;50.846;4.078;2022-07-03T15:07:00;24.70;99.90
20658;DHT22;10488;50.846;4.078;2022-07-03T15:09:29;23.90;99.90
20658;DHT22;10488;50.846;4.078;2022-07-03T15:11:56;23.50;99.90
20658;DHT22;10488;50.846;4.078;2022-07-03T15:14:45;23.90;99.90
20658;DHT22;10488;50.846;4.078;2022-07-03T15:17:12;23.30;99.90
20658;DHT22;10488;50.846;4.078;2022-07-03T15:19:38;23.70;99.90
20658;DHT22;10488;50.846;4.078;2022-07-03T15:22:07;24.10;99.90
20658;DHT22;10488;50.846;4.078;2022-07-03T15:24:38;24.20;99.90
20658;DHT22;10488;50.846;4.078;2022-07-03T15:27:06;24.10;99.90
20658;DHT22;10488;50.846;4.078;2022-07-03T15:29:31;23.80;99.90
20658;DHT22;10488;50.846;4.078;2022-07-03T15:32:02;24.00;99.90
20658;DHT22;10488;50.846;4.078;2022-07-03T15:34:28;23.80;99.90
20658;DHT22;10488;50.846;4.078;2022-07-03T15:40:03;23.90;99.90
20658;DHT22;10488;50.846;4.078;2022-07-03T15:48:07;23.90;99.90
20658;DHT22;10488;50.846;4.078;2022-07-03T15:53:20;22.70;99.90
20658;DHT22;10488;50.846;4.078;2022-07-03T15:55:48;22.70;99.90
20658;DHT22;10488;50.846;4.078;2022-07-03T15:58:28;23.00;99.90
20658;DHT22;10488;50.846;4.078;2022-07-03T16:00:55;23.40;99.90
20658;DHT22;10488;50.846;4.078;2022-07-03T16:03:58;23.90;99.90
20658;DHT22;10488;50.846;4.078;2022-07-03T16:06:27;23.50;99.90
20658;DHT22;10488;50.846;4.078;2022-07-03T16:08:54;23.60;99.90
20658;DHT22;10488;50.846;4.078;2022-07-03T16:11:21;23.60;99.90
20658;DHT22;10488;50.846;4.078;2022-07-03T16:13:48;23.10;99.90
20658;DHT22;10488;50.846;4.078;2022-07-03T16:16:17;23.00;99.90
20658;DHT22;10488;50.846;4.078;2022-07-03T16:18:44;22.20;99.90
20658;DHT22;10488;50.846;4.078;2022-07-03T16:21:12;22.10;99.90
20658;DHT22;10488;50.846;4.078;2022-07-03T16:23:39;22.30;99.90
20658;DHT22;10488;50.846;4.078;2022-07-03T16:26:06;22.50;99.90
20658;DHT22;10488;50.846;4.078;2022-07-03T16:28:32;22.50;99.90
20658;DHT22;10488;50.846;4.078;2022-07-03T16:31:00;22.40;99.90
20658;DHT22;10488;50.846;4.078;2022-07-03T16:33:29;22.40;99.90
20658;DHT22;10488;50.846;4.078;2022-07-03T16:36:20;22.80;99.90
20658;DHT22;10488;50.846;4.078;2022-07-03T16:38:57;22.90;99.90
20658;DHT22;10488;50.846;4.078;2022-07-03T16:41:29;23.20;99.90
20658;DHT22;10488;50.846;4.078;2022-07-03T16:43:58;22.70;99.90
20658;DHT22;10488;50.846;4.078;2022-07-03T16:46:26;22.70;99.90
20658;DHT22;10488;50.846;4.078;2022-07-03T16:48:54;22.60;99.90
20658;DHT22;10488;50.846;4.078;2022-07-03T16:51:23;22.90;99.90
20658;DHT22;10488;50.846;4.078;2022-07-03T16:53:50;23.00;99.90
20658;DHT22;10488;50.846;4.078;2022-07-03T16:56:17;23.40;99.90
20658;DHT22;10488;50.846;4.078;2022-07-03T16:58:45;23.80;99.90
20658;DHT22;10488;50.846;4.078;2022-07-03T17:01:11;23.70;99.90
20658;DHT22;10488;50.846;4.078;2022-07-03T17:03:37;23.20;99.90
20658;DHT22;10488;50.846;4.078;2022-07-03T17:06:04;23.40;99.90
20658;DHT22;10488;50.846;4.078;2022-07-03T17:08:31;23.40;99.90
20658;DHT22;10488;50.846;4.078;2022-07-03T17:10:57;23.40;99.90
20658;DHT22;10488;50.846;4.078;2022-07-03T17:13:23;23.30;99.90
20658;DHT22;10488;50.846;4.078;2022-07-03T17:15:51;23.10;99.90
20658;DHT22;10488;50.846;4.078;2022-07-03T17:18:25;22.50;99.90
20658;DHT22;10488;50.846;4.078;2022-07-03T17:20:54;22.10;99.90